Time;durP1;ratioP1;P1;durP2;ratioP2;P2;SDS_P1;SDS_P2;PMS_P1;PMS_P2;Temp;Humidity;BMP_temperature;BMP_pressure;BME280_temperature;BME280_humidity;BME280_pressure;Samples;Min_cycle;Max_cycle;Signal;HPM_P1;HPM_P2
2021/12/15 00:01:01;;;;;;;68.43;30.30;;;;;;;;;;6163861;23;20479;-85
2021/12/15 00:03:27;;;;;;;71.25;32.47;;;;;;;;;;6188156;23;20377;-85
2021/12/15 00:05:54;;;;;;;68.97;30.43;;;;;;;;;;6138669;23;20369;-85
2021/12/15 00:08:20;;;;;;;79.97;30.87;;;;;;;;;;6138957;23;20373;-85
2021/12/15 00:10:48;;;;;;;69.80;31.02;;;;;;;;;;6140453;23;20402;-86
2021/12/15 00:13:16;;;;;;;69.05;31.60;;;;;;;;;;6162140;23;20826;-84
2021/12/15 00:15:42;;;;;;;75.22;31.70;;;;;;;;;;6188103;23;20856;-85
2021/12/15 00:18:08;;;;;;;68.45;31.13;;;;;;;;;;6139182;23;20388;-85
2021/12/15 00:20:35;;;;;;;72.97;33.20;;;;;;;;;;6162082;23;20428;-86
2021/12/15 00:23:01;;;;;;;70.00;32.17;;;;;;;;;;6189536;23;20381;-85
2021/12/15 00:25:30;;;;;;;67.88;32.03;;;;;;;;;;6187396;23;20381;-84
2021/12/15 00:27:57;;;;;;;72.00;32.72;;;;;;;;;;6166740;23;20819;-85
2021/12/15 00:30:23;;;;;;;77.22;32.85;;;;;;;;;;6164668;23;20404;-85
2021/12/15 00:32:50;;;;;;;75.37;32.50;;;10.30;99.90;;;;;;6165680;23;20373;-85
2021/12/15 00:35:17;;;;;;;71.07;32.88;;;;;;;;;;6190802;23;20377;-85
2021/12/15 00:37:43;;;;;;;73.45;32.33;;;;;;;;;;6188544;23;20377;-85
2021/12/15 00:40:11;;;;;;;71.30;32.63;;;10.30;99.90;;;;;;6164789;23;20370;-85
2021/12/15 00:42:38;;;;;;;73.20;33.15;;;;;;;;;;6186132;23;20385;-85
2021/12/15 00:45:04;;;;;;;68.53;33.33;;;;;;;;;;6164152;23;20428;-85
2021/12/15 00:47:31;;;;;;;74.00;33.77;;;;;;;;;;6188248;23;20859;-85
2021/12/15 00:49:57;;;;;;;70.38;33.70;;;;;;;;;;6162241;23;20396;-86
2021/12/15 00:52:23;;;;;;;67.77;32.30;;;;;;;;;;6188430;23;20943;-85
2021/12/15 00:54:49;;;;;;;70.78;33.08;;;;;;;;;;6162989;23;20377;-85
2021/12/15 00:57:15;;;;;;;66.50;33.35;;;;;;;;;;6164996;23;20394;-85
2021/12/15 00:59:42;;;;;;;71.65;33.80;;;;;;;;;;6187211;23;20419;-85
2021/12/15 01:02:09;;;;;;;69.10;32.65;;;;;;;;;;6187565;23;20398;-85
2021/12/15 01:04:36;;;;;;;70.75;33.05;;;;;;;;;;6187937;23;20392;-84
2021/12/15 01:07:07;;;;;;;69.85;32.92;;;10.10;99.90;;;;;;6188109;23;20373;-85
2021/12/15 01:09:39;;;;;;;64.72;33.47;;;;;;;;;;6188664;23;20428;-85
2021/12/15 01:12:14;;;;;;;65.30;32.75;;;;;;;;;;6161652;23;20376;-84
2021/12/15 01:20:21;;;;;;;74.40;33.00;;;;;;;;;;6188320;23;20377;-84
2021/12/15 01:22:49;;;;;;;71.07;32.90;;;;;;;;;;6165888;23;20401;-85
2021/12/15 01:25:18;;;;;;;70.95;33.53;;;;;;;;;;6164084;23;20379;-85
2021/12/15 01:27:45;;;;;;;75.87;35.07;;;;;;;;;;6191270;23;20391;-85
2021/12/15 01:30:13;;;;;;;69.78;34.72;;;;;;;;;;6188745;23;20377;-84
2021/12/15 01:32:39;;;;;;;76.57;34.20;;;;;;;;;;6190097;23;20588;-85
2021/12/15 01:35:05;;;;;;;74.18;36.80;;;;;;;;;;6189678;23;20384;-85
2021/12/15 01:37:31;;;;;;;77.63;35.10;;;;;;;;;;6189635;23;20369;-84
2021/12/15 01:39:57;;;;;;;73.88;34.63;;;;;;;;;;6189817;23;20373;-85
2021/12/15 01:42:27;;;;;;;74.68;35.17;;;;;;;;;;6188586;23;20712;-85
2021/12/15 01:47:38;;;;;;;76.45;35.55;;;;;;;;;;6189700;23;20448;-85
2021/12/15 01:50:06;;;;;;;72.13;34.95;;;;;;;;;;6187496;23;20370;-85
2021/12/15 01:52:33;;;;;;;79.57;35.40;;;;;;;;;;6165115;23;20452;-84
2021/12/15 01:55:05;;;;;;;74.10;35.00;;;;;;;;;;6188435;23;20384;-85
2021/12/15 01:57:34;;;;;;;76.40;34.47;;;;;;;;;;6190777;23;20384;-85
2021/12/15 02:00:00;;;;;;;72.60;34.83;;;;;;;;;;6162524;23;20456;-85
2021/12/15 02:02:26;;;;;;;79.13;36.17;;;;;;;;;;6164835;23;20404;-84
2021/12/15 02:04:53;;;;;;;75.03;35.60;;;;;;;;;;6164802;23;20374;-85
2021/12/15 02:07:21;;;;;;;79.87;36.57;;;;;;;;;;6189898;23;20365;-85
2021/12/15 02:12:20;;;;;;;77.22;36.38;;;;;;;;;;6188552;23;20428;-85
2021/12/15 02:14:46;;;;;;;76.32;35.63;;;;;;;;;;6190403;23;20376;-85
2021/12/15 02:17:13;;;;;;;77.13;36.20;;;;;;;;;;6189045;23;20405;-85
2021/12/15 02:19:39;;;;;;;75.60;36.50;;;;;;;;;;6190203;23;20423;-85
2021/12/15 02:22:05;;;;;;;69.35;35.00;;;;;;;;;;6163426;23;20397;-84
2021/12/15 02:24:34;;;;;;;73.57;36.95;;;;;;;;;;6189240;23;20370;-85
2021/12/15 02:27:01;;;;;;;83.25;37.58;;;;;;;;;;6190213;23;20369;-84
2021/12/15 02:29:32;;;;;;;77.43;36.58;;;10.00;99.90;;;;;;6139138;23;20369;-84
2021/12/15 02:39:30;;;;;;;79.20;38.55;;;;;;;;;;6188002;23;20464;-85
2021/12/15 02:41:57;;;;;;;76.33;37.07;;;;;;;;;;6190857;23;20400;-85
2021/12/15 02:44:24;;;;;;;77.90;37.63;;;;;;;;;;6190009;23;20389;-84
2021/12/15 02:46:51;;;;;;;78.50;37.00;;;;;;;;;;6190310;23;20377;-85
2021/12/15 02:49:18;;;;;;;78.72;38.63;;;;;;;;;;6167054;23;20421;-85
2021/12/15 02:51:47;;;;;;;76.93;37.80;;;;;;;;;;6192683;23;20377;-84
2021/12/15 02:54:14;;;;;;;77.80;39.25;;;;;;;;;;6165940;23;20373;-85
2021/12/15 02:56:41;;;;;;;73.57;38.22;;;;;;;;;;6166545;23;20425;-85
2021/12/15 02:59:09;;;;;;;76.60;38.85;;;;;;;;;;6188514;23;20380;-85
2021/12/15 03:04:29;;;;;;;76.22;37.88;;;;;;;;;;6188073;23;20377;-85
2021/12/15 03:07:04;;;;;;;76.88;38.42;;;;;;;;;;6189468;23;20377;-84
2021/12/15 03:17:28;;;;;;;75.32;38.25;;;;;;;;;;6187973;23;20377;-85
2021/12/15 03:19:54;;;;;;;76.57;38.53;;;;;;;;;;6190732;23;20370;-85
2021/12/15 03:22:21;;;;;;;74.97;38.10;;;;;;;;;;6193941;23;20400;-85
2021/12/15 03:24:47;;;;;;;73.90;37.38;;;;;;;;;;6192131;23;20380;-85
2021/12/15 03:27:19;;;;;;;68.03;36.67;;;;;;;;;;6196079;23;20372;-85
2021/12/15 03:37:50;;;;;;;76.60;38.45;;;10.10;99.90;;;;;;6194830;23;20411;-85
2021/12/15 03:40:41;;;;;;;70.68;37.28;;;;;;;;;;6197312;23;20375;-84
2021/12/15 03:43:10;;;;;;;73.38;38.53;;;;;;;;;;6172154;23;20382;-84
2021/12/15 03:45:39;;;;;;;74.27;37.57;;;;;;;;;;6197131;23;20406;-85
2021/12/15 03:48:06;;;;;;;78.50;38.73;;;;;;;;;;6196695;23;20715;-84
2021/12/15 03:50:33;;;;;;;73.72;37.67;;;;;;;;;;6195235;23;20364;-85
2021/12/15 03:52:59;;;;;;;74.47;37.75;;;;;;;;;;6197319;23;20371;-83
2021/12/15 03:55:27;;;;;;;72.20;36.50;;;;;;;;;;6173207;23;20459;-83
2021/12/15 03:57:54;;;;;;;73.43;36.65;;;;;;;;;;6196257;23;20434;-84
2021/12/15 04:00:21;;;;;;;80.18;37.58;;;;;;;;;;6194194;23;20367;-84
2021/12/15 04:02:48;;;;;;;74.50;36.85;;;;;;;;;;6194500;23;20901;-84
2021/12/15 04:05:16;;;;;;;76.93;37.13;;;;;;;;;;6170010;23;20372;-84
2021/12/15 04:07:42;;;;;;;77.65;37.38;;;;;;;;;;6193469;23;20367;-85
2021/12/15 04:10:11;;;;;;;80.13;37.03;;;;;;;;;;6168228;23;20368;-84
2021/12/15 04:12:37;;;;;;;74.20;36.60;;;;;;;;;;6192614;23;20463;-84
2021/12/15 04:15:25;;;;;;;78.72;37.67;;;;;;;;;;6144268;23;20389;-85
2021/12/15 04:17:51;;;;;;;78.40;37.28;;;;;;;;;;6168683;23;20389;-84
2021/12/15 04:20:20;;;;;;;77.80;36.97;;;;;;;;;;6191156;23;20462;-84
2021/12/15 04:22:46;;;;;;;76.43;36.85;;;;;;;;;;6194349;23;20382;-84
2021/12/15 04:25:15;;;;;;;74.82;36.40;;;;;;;;;;6192173;23;20433;-85
2021/12/15 04:27:50;;;;;;;73.72;36.25;;;;;;;;;;6193758;23;20379;-84
2021/12/15 04:30:16;;;;;;;77.97;36.88;;;;;;;;;;6168069;23;20415;-84
2021/12/15 04:32:44;;;;;;;83.10;37.80;;;;;;;;;;6169178;23;20364;-84
2021/12/15 04:35:11;;;;;;;77.15;36.78;;;;;;;;;;6168470;23;20422;-84
2021/12/15 04:37:37;;;;;;;79.03;37.08;;;;;;;;;;6166703;23;20573;-85
2021/12/15 04:40:05;;;;;;;77.07;36.42;;;;;;;;;;6194661;23;20438;-84
2021/12/15 04:42:32;;;;;;;80.90;37.95;;;;;;;;;;6192049;23;20459;-84
2021/12/15 04:44:58;;;;;;;80.20;37.63;;;;;;;;;;6194451;23;20376;-84
2021/12/15 04:47:25;;;;;;;77.88;36.88;;;;;;;;;;6168057;23;20375;-84
2021/12/15 04:49:53;;;;;;;80.03;36.33;;;;;;;;;;6193791;23;20430;-84
2021/12/15 04:52:21;;;;;;;77.43;37.55;;;;;;;;;;6192624;23;20399;-83
2021/12/15 04:54:47;;;;;;;81.57;37.47;;;;;;;;;;6194685;23;20442;-84
2021/12/15 04:57:14;;;;;;;78.97;38.05;;;;;;;;;;6196277;23;20386;-85
2021/12/15 04:59:41;;;;;;;86.32;37.70;;;;;;;;;;6194531;23;20454;-84
2021/12/15 05:02:08;;;;;;;79.60;37.58;;;;;;;;;;6194817;23;20427;-84
2021/12/15 05:04:34;;;;;;;78.40;38.33;;;;;;;;;;6195430;23;20523;-85
2021/12/15 05:07:00;;;;;;;79.70;36.80;;;;;;;;;;6197097;23;20359;-84
2021/12/15 05:09:26;;;;;;;79.82;37.80;;;;;;;;;;6199057;23;20376;-84
2021/12/15 05:11:54;;;;;;;77.90;37.15;;;;;;;;;;6174240;23;20386;-84
2021/12/15 05:14:21;;;;;;;76.97;37.77;;;;;;;;;;6170207;23;20368;-84
2021/12/15 05:16:47;;;;;;;83.13;37.90;;;;;;;;;;6194253;23;20450;-84
2021/12/15 05:19:13;;;;;;;84.90;38.75;;;;;;;;;;6196184;23;20467;-84
2021/12/15 05:21:39;;;;;;;79.55;37.58;;;;;;;;;;6193833;23;20478;-84
2021/12/15 05:24:30;;;;;;;81.28;38.10;;;;;;;;;;6194580;23;20376;-84
2021/12/15 05:27:10;;;;;;;84.38;38.92;;;;;;;;;;6195805;23;20368;-83
2021/12/15 05:29:36;;;;;;;81.47;38.55;;;;;;;;;;6193620;23;20410;-84
2021/12/15 05:32:05;;;;;;;89.95;39.88;;;;;;;;;;6197933;23;20370;-83
2021/12/15 05:34:31;;;;;;;81.63;38.65;;;;;;;;;;6195514;23;20386;-84
2021/12/15 05:36:58;;;;;;;86.60;39.15;;;;;;;;;;6170675;23;20434;-84
2021/12/15 05:39:24;;;;;;;85.65;38.25;;;;;;;;;;6169716;23;20367;-84
2021/12/15 05:41:51;;;;;;;87.45;38.50;;;;;;;;;;6193132;23;20460;-83
2021/12/15 05:44:17;;;;;;;83.65;38.38;;;;;;;;;;6170344;23;20435;-83
2021/12/15 05:46:44;;;;;;;76.82;39.03;;;;;;;;;;6168474;23;20372;-83
2021/12/15 05:49:10;;;;;;;83.07;37.70;;;;;;;;;;6194868;23;20368;-84
2021/12/15 05:51:37;;;;;;;85.13;37.83;;;;;;;;;;6193086;23;20475;-84
2021/12/15 05:54:04;;;;;;;84.43;38.60;;;;;;;;;;6194399;23;20371;-84
2021/12/15 05:56:30;;;;;;;84.32;38.85;;;;;;;;;;6194635;23;20421;-84
2021/12/15 05:58:56;;;;;;;79.10;38.20;;;;;;;;;;6193705;23;20463;-84
2021/12/15 06:01:22;;;;;;;83.30;39.63;;;;;;;;;;6194102;23;20671;-84
2021/12/15 06:03:49;;;;;;;79.90;38.10;;;;;;;;;;6168254;23;20443;-84
2021/12/15 06:06:15;;;;;;;85.82;38.13;;;;;;;;;;6194514;23;20394;-85
2021/12/15 06:08:41;;;;;;;82.47;38.85;;;;;;;;;;6193825;23;20371;-84
2021/12/15 06:11:07;;;;;;;80.07;37.17;;;;;;;;;;6195196;23;20740;-85
2021/12/15 06:13:34;;;;;;;80.70;36.60;;;;;;;;;;6168937;23;20902;-85
2021/12/15 06:16:00;;;;;;;76.75;36.97;;;;;;;;;;6193625;23;20841;-85
2021/12/15 06:18:27;;;;;;;73.95;37.42;;;;;;;;;;6194924;23;20402;-84
2021/12/15 06:20:55;;;;;;;74.70;36.97;;;10.50;99.90;;;;;;6192466;23;20399;-84
2021/12/15 06:23:22;;;;;;;74.97;36.85;;;;;;;;;;6169423;23;20383;-85
2021/12/15 06:25:57;;;;;;;78.07;36.57;;;;;;;;;;6169046;23;20395;-84
2021/12/15 06:28:24;;;;;;;85.78;36.95;;;;;;;;;;6169862;23;20867;-84
2021/12/15 06:30:50;;;;;;;80.50;36.72;;;;;;;;;;6169113;23;20449;-85
2021/12/15 06:33:17;;;;;;;86.63;40.05;;;;;;;;;;6193227;23;20371;-84
2021/12/15 06:35:52;;;;;;;76.13;38.40;;;;;;;;;;6170122;23;20380;-83
2021/12/15 06:38:18;;;;;;;70.25;35.67;;;;;;;;;;6193554;23;20378;-84
2021/12/15 06:40:45;;;;;;;76.43;37.20;;;;;;;;;;6168924;23;20391;-84
2021/12/15 06:43:11;;;;;;;84.13;36.75;;;;;;;;;;6166930;23;20367;-83
2021/12/15 06:45:50;;;;;;;73.65;35.83;;;;;;;;;;6191958;23;20364;-83
2021/12/15 06:59:15;;;;;;;70.97;35.83;;;;;;;;;;6171509;23;20372;-82
2021/12/15 07:01:41;;;;;;;80.80;37.90;;;;;;;;;;6194336;23;20407;-84
2021/12/15 07:04:07;;;;;;;69.40;35.15;;;;;;;;;;6193122;23;20371;-84
2021/12/15 07:06:34;;;;;;;77.75;35.47;;;;;;;;;;6168436;23;20376;-85
2021/12/15 07:09:00;;;;;;;72.28;35.10;;;;;;;;;;6193886;23;20372;-83
2021/12/15 07:11:26;;;;;;;65.10;32.40;;;;;;;;;;6192485;23;20367;-85
2021/12/15 07:13:52;;;;;;;67.53;34.35;;;;;;;;;;6168794;23;20467;-82
2021/12/15 07:16:19;;;;;;;67.38;33.67;;;;;;;;;;6192152;23;20394;-83
2021/12/15 07:19:03;;;;;;;67.93;34.20;;;;;;;;;;6194297;23;20414;-83
2021/12/15 07:21:34;;;;;;;61.25;32.75;;;;;;;;;;6162840;23;20401;-83
2021/12/15 07:24:01;;;;;;;68.88;34.15;;;;;;;;;;6189049;23;20365;-83
2021/12/15 07:26:27;;;;;;;62.63;32.42;;;;;;;;;;6190375;23;20413;-81
2021/12/15 07:28:53;;;;;;;60.95;31.33;;;;;;;;;;6174928;23;20373;-81
2021/12/15 07:31:19;;;;;;;59.42;30.90;;;;;;;;;;6172596;23;20580;-81
2021/12/15 07:33:46;;;;;;;57.67;31.38;;;;;;;;;;6194342;23;20373;-82
2021/12/15 07:36:13;;;;;;;74.57;31.55;;;;;;;;;;6190700;23;20518;-81
2021/12/15 07:38:41;;;;;;;53.42;27.83;;;;;;;;;;6164191;23;20977;-80
2021/12/15 07:44:10;;;;;;;49.03;25.43;;;;;;;;;;6149428;23;20400;-81
2021/12/15 07:46:36;;;;;;;46.28;25.95;;;;;;;;;;6162279;23;20408;-81
2021/12/15 07:49:03;;;;;;;50.92;26.20;;;;;;;;;;6188433;23;20433;-81
2021/12/15 07:51:29;;;;;;;53.80;27.20;;;;;;;;;;6186409;23;20369;-81
2021/12/15 07:53:55;;;;;;;53.20;27.02;;;;;;;;;;6162827;23;20373;-82
2021/12/15 07:56:21;;;;;;;54.83;27.27;;;;;;;;;;6162594;23;20890;-81
2021/12/15 07:58:47;;;;;;;55.60;27.90;;;;;;;;;;6184262;23;20377;-83
2021/12/15 08:01:13;;;;;;;53.40;27.90;;;;;;;;;;6134621;23;20405;-82
2021/12/15 08:03:41;;;;;;;58.08;27.52;;;10.00;99.90;;;;;;6187243;23;20858;-81
2021/12/15 08:06:07;;;;;;;53.45;27.55;;;;;;;;;;6164850;23;20369;-80
2021/12/15 08:08:33;;;;;;;62.25;28.10;;;;;;;;;;6163095;23;20941;-80
2021/12/15 08:10:59;;;;;;;59.03;28.10;;;;;;;;;;6187881;23;20404;-81
2021/12/15 08:13:30;;;;;;;59.35;27.85;;;;;;;;;;6162727;23;20420;-81
2021/12/15 08:15:57;;;;;;;59.72;28.63;;;;;;;;;;6162780;23;20432;-80
2021/12/15 08:18:23;;;;;;;56.15;27.60;;;;;;;;;;6163271;23;20445;-80
2021/12/15 08:20:50;;;;;;;57.67;27.98;;;;;;;;;;6186773;23;20408;-80
2021/12/15 08:23:17;;;;;;;52.95;26.85;;;;;;;;;;6161848;23;20377;-80
2021/12/15 08:25:43;;;;;;;53.00;26.63;;;;;;;;;;6186108;23;20451;-79
2021/12/15 08:28:10;;;;;;;52.70;26.25;;;;;;;;;;6187578;23;20374;-80
2021/12/15 08:30:38;;;;;;;46.23;25.70;;;;;;;;;;6187993;23;20408;-79
2021/12/15 08:33:05;;;;;;;52.38;26.05;;;;;;;;;;6161980;23;20414;-80
2021/12/15 08:35:44;;;;;;;52.00;26.23;;;10.50;99.90;;;;;;6188833;23;20379;-80
2021/12/15 08:38:11;;;;;;;55.90;27.23;;;;;;;;;;6186382;23;20442;-80
2021/12/15 08:40:38;;;;;;;51.83;25.27;;;;;;;;;;6189388;23;20415;-80
2021/12/15 08:43:06;;;;;;;50.40;26.35;;;;;;;;;;6186343;23;20421;-79
2021/12/15 08:45:33;;;;;;;49.42;26.20;;;;;;;;;;6162974;23;20727;-80
2021/12/15 08:47:59;;;;;;;48.07;26.70;;;;;;;;;;6186664;23;20377;-80
2021/12/15 08:50:29;;;;;;;57.45;28.52;;;;;;;;;;6187028;23;20370;-80
2021/12/15 08:52:56;;;;;;;52.20;27.08;;;10.60;99.90;;;;;;6188123;23;20381;-80
2021/12/15 08:55:22;;;;;;;52.10;27.48;;;;;;;;;;6160498;23;20373;-79
2021/12/15 08:57:52;;;;;;;50.33;27.20;;;;;;;;;;6186413;23;20391;-80
2021/12/15 09:00:18;;;;;;;54.22;27.10;;;;;;;;;;6162468;23;20373;-80
2021/12/15 09:02:46;;;;;;;56.00;27.92;;;;;;;;;;6187240;23;20472;-79
2021/12/15 09:05:12;;;;;;;53.85;27.83;;;;;;;;;;6162211;23;20369;-79
2021/12/15 09:07:43;;;;;;;52.78;27.02;;;;;;;;;;6186304;23;20376;-80
2021/12/15 09:10:10;;;;;;;53.85;26.63;;;;;;;;;;6188232;23;20407;-80
2021/12/15 09:12:38;;;;;;;51.40;25.93;;;;;;;;;;6162293;23;20428;-79
2021/12/15 09:15:05;;;;;;;48.20;25.25;;;;;;;;;;6163437;23;20385;-80
2021/12/15 09:17:32;;;;;;;52.95;26.73;;;;;;;;;;6187645;23;20381;-79
2021/12/15 09:19:58;;;;;;;45.35;25.00;;;;;;;;;;6165599;23;20370;-79
2021/12/15 09:22:24;;;;;;;44.80;24.70;;;;;;;;;;6168532;23;20398;-80
2021/12/15 09:24:50;;;;;;;46.90;26.23;;;;;;;;;;6192073;23;20733;-80
2021/12/15 09:27:16;;;;;;;54.78;26.50;;;;;;;;;;6194232;23;20372;-79
2021/12/15 09:29:42;;;;;;;49.00;26.05;;;;;;;;;;6192220;23;20368;-79
2021/12/15 09:32:08;;;;;;;50.13;25.93;;;;;;;;;;6192762;23;20372;-80
2021/12/15 09:34:36;;;;;;;52.42;26.08;;;;;;;;;;6167689;23;20368;-79
2021/12/15 09:37:04;;;;;;;50.75;25.95;;;;;;;;;;6192748;23;20371;-80
2021/12/15 09:39:31;;;;;;;48.37;25.60;;;;;;;;;;6193277;23;20374;-81
2021/12/15 09:41:59;;;;;;;47.78;24.40;;;;;;;;;;6143968;23;20855;-83
2021/12/15 09:44:27;;;;;;;43.20;24.48;;;;;;;;;;6196207;23;20374;-81
2021/12/15 10:03:27;;;;;;;40.50;20.95;;;;;;;;;;6193366;23;20443;-83
2021/12/15 10:11:46;;;;;;;40.58;21.73;;;;;;;;;;6194438;23;20368;-85
2021/12/15 10:19:41;;;;;;;44.92;22.38;;;;;;;;;;6194726;23;20383;-85
2021/12/15 10:22:12;;;;;;;41.03;21.30;;;;;;;;;;6185805;23;20405;-84
2021/12/15 10:24:47;;;;;;;36.33;20.10;;;;;;;;;;6186861;23;20373;-84
2021/12/15 10:27:34;;;;;;;42.55;21.67;;;;;;;;;;6164586;23;20405;-86
2021/12/15 10:30:01;;;;;;;42.50;21.33;;;;;;;;;;6163230;23;20441;-86
2021/12/15 10:32:28;;;;;;;36.13;20.67;;;;;;;;;;6189498;23;20369;-86
2021/12/15 10:35:06;;;;;;;38.75;21.42;;;;;;;;;;6163256;23;20370;-86
2021/12/15 10:37:32;;;;;;;37.93;19.93;;;;;;;;;;6189346;23;20384;-85
2021/12/15 10:40:17;;;;;;;37.65;20.50;;;;;;;;;;6187082;23;20373;-82
2021/12/15 10:42:44;;;;;;;35.80;19.63;;;;;;;;;;6189133;23;20878;-83
2021/12/15 10:45:13;;;;;;;34.47;19.57;;;;;;;;;;6163652;23;20410;-84
2021/12/15 10:47:44;;;;;;;35.63;18.52;;;;;;;;;;6164860;23;20504;-83
2021/12/15 10:50:21;;;;;;;34.17;18.45;;;;;;;;;;6189032;23;20445;-83
2021/12/15 10:52:52;;;;;;;33.88;18.88;;;;;;;;;;6189304;23;20373;-83
2021/12/15 10:55:18;;;;;;;27.17;17.67;;;;;;;;;;6187749;23;20378;-83
2021/12/15 10:57:44;;;;;;;34.95;18.27;;;;;;;;;;6190021;23;20902;-82
2021/12/15 11:00:19;;;;;;;30.75;17.17;;;11.20;99.90;;;;;;6188992;23;20365;-86
2021/12/15 11:02:45;;;;;;;30.20;17.08;;;;;;;;;;6164368;23;20462;-85
2021/12/15 11:05:14;;;;;;;28.05;16.48;;;;;;;;;;6163981;23;20373;-82
2021/12/15 11:07:55;;;;;;;30.30;16.40;;;;;;;;;;6187850;23;20427;-81
2021/12/15 11:10:26;;;;;;;30.75;15.85;;;;;;;;;;6165741;23;20444;-82
2021/12/15 11:13:04;;;;;;;29.35;15.77;;;;;;;;;;6163849;23;20404;-81
2021/12/15 11:15:32;;;;;;;24.70;14.85;;;;;;;;;;6163241;23;20382;-82
2021/12/15 11:18:00;;;;;;;25.85;15.05;;;;;;;;;;6165114;23;20385;-80
2021/12/15 11:20:35;;;;;;;26.25;14.73;;;;;;;;;;6188442;23;20409;-82
2021/12/15 11:23:04;;;;;;;29.15;15.23;;;;;;;;;;6188841;23;20404;-82
2021/12/15 11:25:57;;;;;;;26.02;14.70;;;11.00;99.90;;;;;;6188433;23;20381;-83
2021/12/15 11:28:25;;;;;;;24.07;14.00;;;;;;;;;;6176137;23;20378;-83
2021/12/15 11:30:54;;;;;;;30.00;15.77;;;;;;;;;;6163232;23;20692;-83
2021/12/15 11:33:20;;;;;;;28.33;14.38;;;;;;;;;;6188074;23;20926;-83
2021/12/15 11:35:55;;;;;;;22.88;13.23;;;;;;;;;;6189421;23;20381;-82
2021/12/15 11:38:23;;;;;;;24.42;13.13;;;;;;;;;;6188385;23;20377;-83
2021/12/15 11:41:02;;;;;;;25.15;13.52;;;;;;;;;;6187781;23;20499;-83
2021/12/15 11:43:34;;;;;;;23.38;12.73;;;;;;;;;;6163969;23;20382;-83
2021/12/15 11:46:02;;;;;;;20.90;12.20;;;;;;;;;;6186064;23;20373;-83
2021/12/15 11:48:33;;;;;;;22.98;11.73;;;;;;;;;;6189530;23;20377;-83
2021/12/15 11:51:05;;;;;;;24.80;12.43;;;;;;;;;;6187192;23;20453;-83
2021/12/15 11:53:31;;;;;;;22.20;11.37;;;;;;;;;;6187732;23;20378;-87
2021/12/15 11:56:33;;;;;;;22.10;11.35;;;;;;;;;;6189018;23;20460;-85
2021/12/15 11:59:14;;;;;;;19.60;10.05;;;;;;;;;;6074266;23;20872;-84
2021/12/15 12:01:44;;;;;;;18.15;8.82;;;;;;;;;;6177612;23;20401;-87
2021/12/15 12:04:13;;;;;;;16.38;8.35;;;;;;;;;;6163453;23;20440;-82
2021/12/15 12:06:39;;;;;;;16.73;8.38;;;;;;;;;;6163836;23;20381;-83
2021/12/15 12:09:05;;;;;;;17.15;9.10;;;;;;;;;;6138412;23;20369;-81
2021/12/15 12:11:34;;;;;;;17.05;7.97;;;;;;;;;;6187391;23;20464;-79
2021/12/15 12:14:00;;;;;;;20.65;8.98;;;;;;;;;;6164757;23;20388;-82
2021/12/15 12:16:27;;;;;;;20.80;8.88;;;;;;;;;;6163057;23;20369;-81
2021/12/15 12:18:55;;;;;;;16.20;7.68;;;;;;;;;;6163799;23;20754;-84
2021/12/15 12:21:22;;;;;;;16.47;8.20;;;;;;;;;;6188153;23;20405;-83
2021/12/15 12:23:49;;;;;;;23.38;8.88;;;;;;;;;;6191859;23;20399;-85
2021/12/15 12:26:16;;;;;;;19.48;8.30;;;;;;;;;;6151102;23;20380;-85
2021/12/15 12:28:46;;;;;;;13.27;6.88;;;;;;;;;;6174746;23;20365;-83
2021/12/15 12:31:17;;;;;;;18.43;7.30;;;;;;;;;;6168702;23;20401;-82
2021/12/15 12:33:43;;;;;;;16.23;6.70;;;;;;;;;;6166732;23;20437;-82
2021/12/15 12:36:10;;;;;;;13.30;5.80;;;;;;;;;;6192841;23;20408;-82
2021/12/15 12:38:38;;;;;;;14.43;5.78;;;;;;;;;;6167333;23;20381;-83
2021/12/15 12:41:13;;;;;;;10.73;4.93;;;;;;;;;;6164636;23;20428;-82
2021/12/15 12:43:40;;;;;;;10.05;4.90;;;;;;;;;;6162939;23;20393;-82
2021/12/15 12:46:25;;;;;;;8.93;4.07;;;;;;;;;;6163382;23;20492;-83
2021/12/15 12:59:45;;;;;;;11.63;3.93;;;10.90;99.90;;;;;;6190972;23;20381;-80
2021/12/15 13:05:26;;;;;;;16.52;4.32;;;;;;;;;;6192482;23;20440;-83
2021/12/15 13:07:54;;;;;;;11.48;3.80;;;10.80;99.90;;;;;;6165577;23;20370;-82
2021/12/15 13:10:22;;;;;;;7.97;3.40;;;;;;;;;;6168715;23;20384;-82
2021/12/15 13:12:49;;;;;;;12.60;3.60;;;;;;;;;;6167106;23;20385;-82
2021/12/15 13:15:20;;;;;;;9.82;3.67;;;;;;;;;;6168660;23;20419;-82
2021/12/15 13:17:59;;;;;;;9.53;3.70;;;;;;;;;;6191545;23;20454;-82
2021/12/15 13:20:27;;;;;;;9.27;3.13;;;;;;;;;;6167143;23;20381;-82
2021/12/15 13:28:51;;;;;;;11.48;2.95;;;;;;;;;;6202309;23;20378;-82
2021/12/15 13:31:19;;;;;;;7.20;2.90;;;;;;;;;;6176443;23;20381;-83
2021/12/15 13:33:58;;;;;;;6.78;2.45;;;10.70;99.90;;;;;;6171195;23;20385;-83
2021/12/15 13:36:40;;;;;;;8.48;3.25;;;;;;;;;;6167161;23;20451;-84
2021/12/15 13:39:08;;;;;;;6.68;2.90;;;;;;;;;;6167118;23;20373;-83
2021/12/15 13:44:17;;;;;;;6.20;2.50;;;;;;;;;;6188258;23;20382;-83
2021/12/15 13:46:49;;;;;;;8.57;2.95;;;;;;;;;;6161189;23;20392;-83
2021/12/15 13:49:29;;;;;;;12.32;2.97;;;;;;;;;;6186244;23;20387;-84
2021/12/15 13:52:10;;;;;;;7.72;2.85;;;;;;;;;;6161307;23;20377;-83
2021/12/15 13:54:36;;;;;;;6.55;2.83;;;;;;;;;;6160075;23;20381;-83
2021/12/15 13:57:12;;;;;;;8.32;3.08;;;;;;;;;;6161402;23;20377;-83
2021/12/15 13:59:38;;;;;;;9.75;3.40;;;;;;;;;;6158216;23;20392;-82
2021/12/15 14:02:16;;;;;;;7.33;2.83;;;;;;;;;;6184332;23;20400;-82
2021/12/15 14:04:42;;;;;;;6.60;3.00;;;;;;;;;;6187231;23;20955;-81
2021/12/15 14:07:35;;;;;;;8.00;3.30;;;;;;;;;;6184729;23;20379;-82
2021/12/15 14:10:04;;;;;;;10.27;3.08;;;;;;;;;;6177936;23;20776;-83
2021/12/15 14:12:45;;;;;;;5.65;2.72;;;;;;;;;;6160243;23;20378;-82
2021/12/15 14:15:11;;;;;;;6.53;3.20;;;;;;;;;;6157312;23;20377;-83
2021/12/15 14:17:37;;;;;;;8.57;3.23;;;;;;;;;;6158804;23;20413;-83
2021/12/15 14:20:17;;;;;;;7.57;3.10;;;;;;;;;;6136443;23;20448;-82
2021/12/15 14:22:44;;;;;;;6.60;2.28;;;10.20;99.90;;;;;;6165388;23;20392;-82
2021/12/15 14:25:11;;;;;;;4.70;2.20;;;;;;;;;;6187880;23;20377;-82
2021/12/15 14:27:37;;;;;;;7.55;2.90;;;;;;;;;;6165909;23;20431;-82
2021/12/15 14:30:07;;;;;;;6.22;2.40;;;;;;;;;;6139919;23;20364;-82
2021/12/15 14:32:33;;;;;;;6.97;2.58;;;;;;;;;;6164628;23;20458;-83
2021/12/15 14:35:00;;;;;;;5.63;2.58;;;;;;;;;;6165374;23;20823;-82
2021/12/15 14:37:26;;;;;;;7.88;3.00;;;;;;;;;;6164499;23;20376;-83
2021/12/15 14:39:55;;;;;;;8.55;2.75;;;;;;;;;;6165408;23;20367;-82
2021/12/15 14:42:26;;;;;;;7.82;3.50;;;;;;;;;;6138277;23;20400;-83
2021/12/15 14:44:54;;;;;;;8.45;3.30;;;;;;;;;;6165710;23;20371;-82
2021/12/15 14:47:23;;;;;;;9.47;2.93;;;10.70;99.90;;;;;;6164340;23;20384;-82
2021/12/15 14:49:51;;;;;;;6.60;2.60;;;;;;;;;;6188353;23;20463;-82
2021/12/15 14:52:25;;;;;;;7.97;2.60;;;;;;;;;;6165307;23;20380;-82
2021/12/15 14:54:53;;;;;;;6.10;2.42;;;;;;;;;;6164918;23;20407;-82
2021/12/15 14:57:21;;;;;;;7.05;2.65;;;;;;;;;;6176036;23;20386;-82
2021/12/15 14:59:49;;;;;;;7.20;2.60;;;;;;;;;;6180458;23;20393;-81
2021/12/15 15:02:17;;;;;;;7.72;2.60;;;;;;;;;;6200895;23;20422;-83
2021/12/15 15:04:46;;;;;;;7.00;2.15;;;;;;;;;;6179157;23;20368;-84
2021/12/15 15:07:13;;;;;;;5.30;2.00;;;;;;;;;;6180608;23;20367;-83
2021/12/15 15:09:41;;;;;;;4.65;2.03;;;;;;;;;;6196664;23;20383;-84
2021/12/15 15:12:17;;;;;;;6.43;2.08;;;10.50;99.90;;;;;;6169116;23;20391;-84
2021/12/15 15:14:52;;;;;;;4.80;2.15;;;;;;;;;;6195246;23;20861;-84
2021/12/15 15:17:29;;;;;;;4.97;2.00;;;;;;;;;;6169148;23;20383;-85
2021/12/15 15:19:57;;;;;;;5.88;2.00;;;;;;;;;;6194382;23;20384;-87
2021/12/15 15:22:27;;;;;;;6.68;1.90;;;;;;;;;;6164572;23;20429;-86
2021/12/15 15:24:54;;;;;;;4.18;1.70;;;;;;;;;;6163997;23;20661;-83
2021/12/15 15:27:21;;;;;;;3.95;1.60;;;;;;;;;;6165488;23;20401;-84
2021/12/15 15:29:50;;;;;;;4.68;1.80;;;;;;;;;;6164105;23;20373;-83
2021/12/15 15:32:23;;;;;;;5.20;1.80;;;10.10;99.90;;;;;;6188263;23;21248;-83
2021/12/15 15:34:51;;;;;;;5.40;1.55;;;;;;;;;;6164023;23;20377;-83
2021/12/15 15:37:28;;;;;;;6.20;1.95;;;10.40;99.90;;;;;;6163993;23;20654;-83
2021/12/15 15:40:00;;;;;;;4.53;2.10;;;;;;;;;;6164476;23;20386;-84
2021/12/15 15:42:27;;;;;;;4.65;1.42;;;;;;;;;;6163171;23;20905;-84
2021/12/15 15:44:53;;;;;;;5.32;1.70;;;;;;;;;;6189364;23;20438;-83
2021/12/15 15:47:20;;;;;;;5.18;1.63;;;;;;;;;;6188621;23;20377;-83
2021/12/15 15:50:07;;;;;;;5.53;1.50;;;10.40;99.90;;;;;;6163998;23;20373;-83
2021/12/15 15:52:41;;;;;;;8.02;1.95;;;;;;;;;;6136770;23;20381;-82
2021/12/15 15:55:08;;;;;;;5.25;1.60;;;;;;;;;;6161173;23;20404;-82
2021/12/15 15:57:34;;;;;;;5.93;1.83;;;;;;;;;;6162793;23;20376;-82
2021/12/15 16:00:00;;;;;;;5.68;1.58;;;;;;;;;;6157560;23;20460;-84
2021/12/15 16:02:26;;;;;;;6.63;2.20;;;;;;;;;;6187708;23;20461;-88
2021/12/15 16:04:52;;;;;;;6.05;1.80;;;;;;;;;;6188533;23;20441;-86
2021/12/15 16:07:19;;;;;;;8.60;1.85;;;;;;;;;;6188106;23;20436;-86